CheckWX is a tool to help pilots better visualize weather data.  It is not intended as a substitute for an official pre-flight weather briefing.

06:46:54 UTC

KHEG METAR
Herlong Recreational Airport
Jacksonville, Florida, USA
Current

12 mins ago

KHEG 210635Z AUTO 16003KT 9SM CLR 23/21 A2996 RMK AO2
Observed
May-21 @ 06:35 UTC
Wind
  • 160° at 3 KTS
Visibility
9 SM
Flight Rules
VFR
Cloud Levels
  • Clear skies
Temperature
23°C / 73°F
Dewpoint
21°C / 70°F
Humidity
89%
Altimeter
29.96" Hg
Pressure
1014.52 hPa
Previous

32 mins ago

KHEG 210615Z AUTO 15003KT 10SM CLR 23/21 A2996 RMK AO2
Observed
May-21 @ 06:15 UTC
Wind
  • 150° at 3 KTS
Visibility
10 SM
Flight Rules
VFR
Cloud Levels
  • Clear skies
Temperature
23°C / 73°F
Dewpoint
21°C / 70°F
Humidity
89%
Altimeter
29.96" Hg
Pressure
1014.52 hPa
Previous

52 mins ago

KHEG 210555Z AUTO 15003KT 9SM CLR 23/21 A2997 RMK AO2
Observed
May-21 @ 05:55 UTC
Wind
  • 150° at 3 KTS
Visibility
9 SM
Flight Rules
VFR
Cloud Levels
  • Clear skies
Temperature
23°C / 73°F
Dewpoint
21°C / 70°F
Humidity
89%
Altimeter
29.97" Hg
Pressure
1014.92 hPa